Martin H — LCWK — position and weather

sailwx.info

Track history (hours):
 
Tides and Currents Weather Stations Pressure Air Temp Water Temp Dewpoint Dewpoint Depression Visibility Wind Speed Wind Dir Waves Ship Positions

Martin H

Last reported at 2018-Jul-21 09:00 UTC. Time now 2018-Jul-21 09:18 UTC.
Position N 69°43' E 019°01'.

Length 68 m; draft 5.8 m.

Type: Cargo ship. MMSI: 257996000.

Date/timePositionNaut miles runAvg speedWind from/ knotsBaromVisibWave heightAir tempDewpointWater temp
2018-Jul-21 09:00N 69°43' E 019°01'0 0.0
2018-Jul-21 08:30N 69°43' E 019°01'1 1.4
2018-Jul-21 08:00N 69°43' E 019°03'4 7.5
2018-Jul-21 07:30N 69°46' E 019°10'4 7.5
2018-Jul-21 07:00N 69°47' E 019°20'4 7.5
2018-Jul-21 06:31N 69°48' E 019°30'4 7.3
2018-Jul-21 06:00N 69°49' E 019°40'3 6.0
2018-Jul-21 05:30N 69°47' E 019°45'4 7.2
2018-Jul-21 05:00N 69°43' E 019°45'4 7.3
2018-Jul-21 04:30N 69°40' E 019°46'4 7.0
2018-Jul-21 04:00N 69°37' E 019°51'2 4.6
2018-Jul-21 03:30N 69°36' E 019°58'0 0.0
2018-Jul-21 03:00N 69°36' E 019°58'0 0.0
2018-Jul-21 02:30N 69°36' E 019°58'0 0.0
2018-Jul-21 02:00N 69°36' E 019°58'0 0.0
2018-Jul-21 01:30N 69°36' E 019°58'0 0.0
2018-Jul-21 01:00N 69°36' E 019°58'0 0.0
2018-Jul-21 00:29N 69°36' E 019°58'0 0.0
2018-Jul-21 00:00N 69°36' E 019°58'0 0.0
2018-Jul-20 23:30N 69°36' E 019°58'0 0.0
2018-Jul-20 23:00N 69°36' E 019°58'0 0.0
2018-Jul-20 22:30N 69°36' E 019°58'0 0.0
2018-Jul-20 22:01N 69°36' E 019°58'0 0.0
2018-Jul-20 21:31N 69°36' E 019°58'1 1.0
2018-Jul-20 21:00N 69°36' E 019°56'510.1
2018-Jul-20 20:30N 69°40' E 019°46'510.9
2018-Jul-20 20:00N 69°45' E 019°45'5 9.1
2018-Jul-20 19:30N 69°49' E 019°40'510.4
2018-Jul-20 19:00N 69°48' E 019°26'510.4
2018-Jul-20 18:30N 69°46' E 019°12'5 9.8
2018-Jul-20 18:00N 69°43' E 019°02'0 0.1
2018-Jul-20 17:30N 69°43' E 019°01'0 0.0
2018-Jul-20 17:00N 69°43' E 019°01'0 0.0
2018-Jul-20 16:30N 69°43' E 019°01'0 0.0
2018-Jul-20 16:00N 69°43' E 019°01'0 0.0
2018-Jul-20 15:30N 69°43' E 019°01'0 0.0
2018-Jul-20 15:00N 69°43' E 019°01'0 0.0
2018-Jul-20 14:28N 69°43' E 019°01'0 0.0
2018-Jul-20 13:59N 69°43' E 019°01'0 0.0
2018-Jul-20 13:30N 69°43' E 019°01'0 0.0
2018-Jul-20 13:00N 69°43' E 019°01'0 0.0
2018-Jul-20 12:30N 69°43' E 019°01'0 0.0
2018-Jul-20 12:00N 69°43' E 019°01'0 0.0
2018-Jul-20 11:30N 69°43' E 019°01'0 0.0
2018-Jul-20 11:00N 69°43' E 019°01'1 1.7
2018-Jul-20 10:30N 69°42' E 019°02'4 6.9
2018-Jul-20 09:59N 69°39' E 018°58'3 6.7
2018-Jul-20 09:31N 69°36' E 018°52'3 6.0
2018-Jul-20 09:00N 69°34' E 018°46'2 3.8
2018-Jul-20 08:29N 69°33' E 018°41'3 6.8
2018-Jul-20 08:00N 69°32' E 018°32'3 6.7
2018-Jul-20 07:28N 69°31' E 018°23'3 7.1
2018-Jul-20 07:01N 69°29' E 018°14'3 6.6
2018-Jul-20 06:31N 69°27' E 018°07'4 7.1
2018-Jul-20 06:00N 69°24' E 018°06'3 6.4
2018-Jul-20 05:30N 69°20' E 018°04'3 6.4
2018-Jul-20 04:59N 69°18' E 017°59'3 6.7
2018-Jul-20 04:30N 69°14' E 017°58'3 6.2
2018-Jul-20 04:00N 69°12' E 018°01'3 6.8
2018-Jul-20 03:31N 69°10' E 017°54'4 7.0
2018-Jul-20 03:00N 69°08' E 017°44'3 6.9
2018-Jul-20 02:31N 69°07' E 017°36'3 6.8
2018-Jul-20 02:01N 69°05' E 017°27'3 6.5
2018-Jul-20 01:30N 69°03' E 017°20'4 6.8
2018-Jul-20 00:58N 69°00' E 017°15'4 7.0
2018-Jul-20 00:28N 68°60' E 017°05'3 6.9
2018-Jul-20 00:00N 68°60' E 016°56'4 7.0
2018-Jul-19 23:30N 69°00' E 016°46'4 7.1
2018-Jul-19 22:59N 69°01' E 016°36'3 7.1
2018-Jul-19 22:30N 69°01' E 016°27'4 7.1
2018-Jul-19 21:59N 69°01' E 016°17'3 6.9
2018-Jul-19 21:30N 69°00' E 016°07'3 6.7
2018-Jul-19 21:00N 68°60' E 015°58'3 6.9
2018-Jul-19 20:30N 68°59' E 015°49'3 6.0
2018-Jul-19 19:59N 68°58' E 015°41'3 6.1
2018-Jul-19 19:31N 68°56' E 015°35'3 6.7
2018-Jul-19 19:00N 68°53' E 015°32'4 7.2
2018-Jul-19 18:30N 68°49' E 015°27'4 7.3
2018-Jul-19 18:00N 68°46' E 015°25'3 7.0
2018-Jul-19 17:30N 68°42' E 015°26'3 6.6
2018-Jul-19 17:00N 68°39' E 015°23'4 7.5
2018-Jul-19 16:29N 68°37' E 015°15'4 7.3
2018-Jul-19 16:00N 68°35' E 015°07'4 7.0
2018-Jul-19 15:30N 68°35' E 014°57'4 7.5
2018-Jul-19 15:00N 68°35' E 014°47'4 7.4
2018-Jul-19 14:29N 68°36' E 014°37'6 5.8
2018-Jul-19 13:31N 68°37' E 014°22'3 7.0
2018-Jul-19 13:01N 68°41' E 014°21'3 6.4
2018-Jul-19 12:30N 68°43' E 014°26'2 4.5
2018-Jul-19 12:00N 68°44' E 014°31'0 0.4
2018-Jul-19 11:30N 68°44' E 014°32'0 0.0
2018-Jul-19 11:01N 68°44' E 014°32'0 0.0
2018-Jul-19 10:30N 68°44' E 014°32'0 0.0
2018-Jul-19 10:00N 68°44' E 014°32'0 0.0
2018-Jul-19 09:30N 68°44' E 014°32'0 0.0
2018-Jul-19 09:00N 68°44' E 014°32'0 0.0
2018-Jul-19 08:29N 68°44' E 014°32'0 0.0
2018-Jul-19 08:00N 68°44' E 014°32'0 0.3
2018-Jul-19 07:30N 68°44' E 014°32'0 0.1
2018-Jul-19 07:00N 68°44' E 014°32'0 0.0
2018-Jul-19 06:30N 68°44' E 014°32'0 0.2
2018-Jul-19 06:00N 68°44' E 014°32'0 0.1
2018-Jul-19 05:30N 68°44' E 014°32'0 0.0
2018-Jul-19 05:00N 68°44' E 014°32'0 0.1
2018-Jul-19 04:30N 68°44' E 014°32'0 0.0
2018-Jul-19 04:00N 68°44' E 014°32'0 1.0
2018-Jul-19 03:29N 68°44' E 014°30'4 8.6
2018-Jul-19 03:01N 68°42' E 014°21'510.6
2018-Jul-19 02:30N 68°36' E 014°22'4 8.8
2018-Jul-19 02:01N 68°35' E 014°34'510.0
2018-Jul-19 01:30N 68°35' E 014°47'610.8
2018-Jul-19 01:00N 68°34' E 015°02'510.4
2018-Jul-19 00:29N 68°37' E 015°15'510.2
2018-Jul-19 00:00N 68°40' E 015°25'510.1
2018-Jul-18 23:30N 68°45' E 015°26'5 9.9
2018-Jul-18 23:00N 68°50' E 015°28'5 9.9
2018-Jul-18 22:29N 68°54' E 015°35'5 9.2
2018-Jul-18 22:00N 68°58' E 015°41'510.2
2018-Jul-18 21:30N 68°59' E 015°55'611.0
2018-Jul-18 21:00N 68°57' E 016°10'510.9
2018-Jul-18 20:30N 68°54' E 016°22'510.7
2018-Jul-18 20:00N 68°51' E 016°35'3 6.6
2018-Jul-18 19:30N 68°48' E 016°33'4 8.0
2018-Jul-18 19:00N 68°50' E 016°41'4 8.4
2018-Jul-18 18:29N 68°47' E 016°33'0 0.0
2018-Jul-18 18:00N 68°47' E 016°33'0 0.0
2018-Jul-18 17:30N 68°47' E 016°33'0 0.0
2018-Jul-18 17:00N 68°47' E 016°33'0 0.0
2018-Jul-18 16:30N 68°47' E 016°33'0 0.0
2018-Jul-18 16:00N 68°47' E 016°33'0 0.0
2018-Jul-18 15:30N 68°47' E 016°33'0 0.0
2018-Jul-18 15:00N 68°47' E 016°33'0 0.0
2018-Jul-18 14:30N 68°47' E 016°33'0 0.0
2018-Jul-18 14:00N 68°47' E 016°33'0 0.0
2018-Jul-18 13:31N 68°47' E 016°33'0 0.0
2018-Jul-18 13:00N 68°47' E 016°33'0 0.0
2018-Jul-18 12:30N 68°47' E 016°33'0 0.0
2018-Jul-18 12:00N 68°47' E 016°33'0 0.0
2018-Jul-18 11:30N 68°47' E 016°33'0 0.0
2018-Jul-18 10:30N 68°47' E 016°33'0 0.0
2018-Jul-18 10:00N 68°47' E 016°33'0 0.0
2018-Jul-18 09:30N 68°47' E 016°33'0 0.0
2018-Jul-18 09:00N 68°47' E 016°33'0 0.0
2018-Jul-18 08:30N 68°47' E 016°33'0 0.0
2018-Jul-18 08:00N 68°47' E 016°33'0 0.0
2018-Jul-18 07:30N 68°47' E 016°33'0 0.0
2018-Jul-18 07:00N 68°47' E 016°33'0 0.0
2018-Jul-18 06:31N 68°47' E 016°33'0 0.0
2018-Jul-18 06:00N 68°47' E 016°33'0 0.0
2018-Jul-18 05:30N 68°47' E 016°33'0 0.0
2018-Jul-18 05:00N 68°47' E 016°33'0 0.0
2018-Jul-18 04:30N 68°47' E 016°33'0 0.0
2018-Jul-18 04:00N 68°47' E 016°33'0 0.0
2018-Jul-18 03:30N 68°47' E 016°33'0 0.0
2018-Jul-18 03:00N 68°47' E 016°33'0 0.0
2018-Jul-18 02:30N 68°47' E 016°33'0 0.0
2018-Jul-18 02:00N 68°47' E 016°33'0 0.0
2018-Jul-18 01:30N 68°47' E 016°33'0 0.0
2018-Jul-18 01:01N 68°47' E 016°33'0 0.0
2018-Jul-18 00:31N 68°47' E 016°33'0 0.0
2018-Jul-18 00:00N 68°47' E 016°33'0 0.0
2018-Jul-17 23:30N 68°47' E 016°33'0 0.0
2018-Jul-17 23:00N 68°47' E 016°33'0 0.0
2018-Jul-17 22:30N 68°47' E 016°33'0 0.0
2018-Jul-17 22:00N 68°47' E 016°33'0 0.0
2018-Jul-17 21:30N 68°47' E 016°33'0 0.0
2018-Jul-17 21:00N 68°47' E 016°33'0 0.0
2018-Jul-17 20:31N 68°47' E 016°33'0 0.0
2018-Jul-17 20:00N 68°47' E 016°33'0 0.0
2018-Jul-17 19:30N 68°47' E 016°33'0 0.0
2018-Jul-17 19:00N 68°47' E 016°33'0 0.0
2018-Jul-17 18:31N 68°47' E 016°33'0 0.0
2018-Jul-17 18:00N 68°47' E 016°33'0 0.0
2018-Jul-17 17:30N 68°47' E 016°33'0 0.0
2018-Jul-17 17:00N 68°47' E 016°33'0 0.0
2018-Jul-17 16:30N 68°47' E 016°33'0 0.0
2018-Jul-17 16:00N 68°47' E 016°33'0 0.0
2018-Jul-17 15:30N 68°47' E 016°33'0 0.0
2018-Jul-17 15:00N 68°47' E 016°33'0 0.0
2018-Jul-17 14:30N 68°47' E 016°33'0 0.0
2018-Jul-17 14:00N 68°47' E 016°33'0 0.0
2018-Jul-17 13:30N 68°47' E 016°33'0 0.0
2018-Jul-17 13:00N 68°47' E 016°33'0 0.0
2018-Jul-17 12:30N 68°47' E 016°33'0 0.0
2018-Jul-17 12:00N 68°47' E 016°33'0 0.0
2018-Jul-17 11:30N 68°47' E 016°33'0 0.0
2018-Jul-17 11:01N 68°47' E 016°33'0 0.0
2018-Jul-17 10:30N 68°47' E 016°33'0 0.0
2018-Jul-17 10:01N 68°47' E 016°33'0 0.0
2018-Jul-17 09:30N 68°47' E 016°33'0 0.0
2018-Jul-17 09:00N 68°47' E 016°33'0 0.0
2018-Jul-17 08:31N 68°47' E 016°33'0 0.0
2018-Jul-17 08:00N 68°47' E 016°33'0 0.0
2018-Jul-17 07:30N 68°47' E 016°33'0 0.0
2018-Jul-17 07:00N 68°47' E 016°33'0 0.0
2018-Jul-17 06:31N 68°47' E 016°33'0 0.0
2018-Jul-17 06:00N 68°47' E 016°33'0 0.0
2018-Jul-17 05:30N 68°47' E 016°33'0 0.0
2018-Jul-17 05:00N 68°47' E 016°33'0 0.0
2018-Jul-17 04:30N 68°47' E 016°33'0 0.0
2018-Jul-17 04:00N 68°47' E 016°33'0 0.0
2018-Jul-17 03:30N 68°47' E 016°33'0 0.0
2018-Jul-17 03:00N 68°47' E 016°33'0 0.0
2018-Jul-17 02:30N 68°47' E 016°33'0 0.0
2018-Jul-17 02:00N 68°47' E 016°33'0 0.0
2018-Jul-17 01:30N 68°47' E 016°33'0 0.0
2018-Jul-17 01:00N 68°47' E 016°33'0 0.0
2018-Jul-17 00:29N 68°47' E 016°33'0 0.0
2018-Jul-16 23:30N 68°47' E 016°33'0 0.0
2018-Jul-16 23:00N 68°47' E 016°33'0 0.0
2018-Jul-16 22:31N 68°47' E 016°33'0 0.0
2018-Jul-16 22:00N 68°47' E 016°33'0 0.0
2018-Jul-16 21:30N 68°47' E 016°33'0 0.0
2018-Jul-16 21:00N 68°47' E 016°33'0 0.0
2018-Jul-16 20:30N 68°47' E 016°33'0 0.0
2018-Jul-16 20:01N 68°47' E 016°33'0 0.0
2018-Jul-16 19:31N 68°47' E 016°33'0 0.0
2018-Jul-16 19:01N 68°47' E 016°33'0 0.0
2018-Jul-16 18:30N 68°47' E 016°33'0 0.0
2018-Jul-16 18:00N 68°47' E 016°33'0 0.0
2018-Jul-16 17:30N 68°47' E 016°33'0 0.0
2018-Jul-16 17:00N 68°47' E 016°33'0 0.0
2018-Jul-16 16:30N 68°47' E 016°33'0 0.0
2018-Jul-16 16:00N 68°47' E 016°33'3 6.4
2018-Jul-16 15:29N 68°50' E 016°37'510.2
2018-Jul-16 15:00N 68°55' E 016°42'510.0
2018-Jul-16 14:31N 68°59' E 016°47'510.0
2018-Jul-16 14:00N 69°04' E 016°44'510.1
2018-Jul-16 13:30N 69°09' E 016°45'510.3
2018-Jul-16 13:00N 69°14' E 016°50'510.5
2018-Jul-16 12:31N 69°19' E 016°50'510.1
2018-Jul-16 12:00N 69°25' E 016°49'5 9.8
2018-Jul-16 11:30N 69°29' E 016°53'5 9.3
2018-Jul-16 11:00N 69°32' E 017°04'5 9.5
2018-Jul-16 10:31N 69°33' E 017°18'5 9.1
2018-Jul-16 10:00N 69°31' E 017°30'2 3.0
2018-Jul-16 09:30N 69°29' E 017°29'0 0.0
2018-Jul-16 09:00N 69°29' E 017°29'0 0.0
2018-Jul-16 08:30N 69°29' E 017°29'0 0.0
2018-Jul-16 08:00N 69°29' E 017°29'0 0.0
2018-Jul-16 07:30N 69°29' E 017°29'0 0.0
2018-Jul-16 06:59N 69°29' E 017°29'0 0.0
2018-Jul-16 06:30N 69°29' E 017°29'0 0.0
2018-Jul-16 05:59N 69°29' E 017°29'0 0.0
2018-Jul-16 05:30N 69°29' E 017°29'0 0.0
2018-Jul-16 05:00N 69°29' E 017°29'0 0.0
2018-Jul-16 04:30N 69°29' E 017°29'0 0.0
2018-Jul-16 04:01N 69°29' E 017°29'0 0.0
2018-Jul-16 03:31N 69°29' E 017°29'0 0.0
2018-Jul-16 03:00N 69°29' E 017°29'0 0.0
2018-Jul-16 02:30N 69°29' E 017°29'0 0.0
2018-Jul-16 02:01N 69°29' E 017°29'1 2.9
2018-Jul-16 01:31N 69°31' E 017°30'4 7.1
2018-Jul-16 01:00N 69°33' E 017°21'3 6.8
2018-Jul-16 00:31N 69°32' E 017°12'4 7.2
2018-Jul-15 23:59N 69°31' E 017°01'3 6.9
2018-Jul-15 23:30N 69°30' E 016°53'3 5.0
2018-Jul-15 23:00N 69°27' E 016°50'3 6.9
2018-Jul-15 22:31N 69°24' E 016°45'4 7.0
2018-Jul-15 22:01N 69°21' E 016°40'4 7.0
2018-Jul-15 21:30N 69°18' E 016°34'3 6.7
2018-Jul-15 21:00N 69°16' E 016°29'4 7.1
2018-Jul-15 20:30N 69°13' E 016°23'4 7.3
2018-Jul-15 20:00N 69°10' E 016°18'4 7.4
2018-Jul-15 19:30N 69°07' E 016°11'4 7.4
2018-Jul-15 19:00N 69°04' E 016°05'4 7.4
2018-Jul-15 18:30N 69°01' E 015°58'4 7.4
2018-Jul-15 17:59N 68°59' E 015°49'4 7.3
2018-Jul-15 17:30N 68°58' E 015°39'4 7.0
2018-Jul-15 17:00N 68°55' E 015°35'4 7.2
2018-Jul-15 16:30N 68°52' E 015°30'4 8.0
2018-Jul-15 15:59N 68°48' E 015°26'4 8.4
2018-Jul-15 15:29N 68°44' E 015°25'4 7.7
2018-Jul-15 15:00N 68°40' E 015°25'4 7.8
2018-Jul-15 14:30N 68°37' E 015°17'4 7.8
2018-Jul-15 14:00N 68°35' E 015°09'3 6.9
2018-Jul-15 13:30N 68°34' E 014°59'4 7.0
2018-Jul-15 13:00N 68°35' E 014°50'4 7.4
2018-Jul-15 12:30N 68°36' E 014°40'4 7.5
2018-Jul-15 12:00N 68°35' E 014°30'3 5.5
2018-Jul-15 11:30N 68°36' E 014°22'3 6.2
2018-Jul-15 11:00N 68°39' E 014°23'3 5.4
2018-Jul-15 10:29N 68°42' E 014°21'3 5.5
2018-Jul-15 10:00N 68°44' E 014°26'2 4.2
2018-Jul-15 09:30N 68°44' E 014°32'0 0.0
2018-Jul-15 08:58N 68°44' E 014°32'0 0.0
2018-Jul-15 08:30N 68°44' E 014°32'0 0.0
2018-Jul-15 08:00N 68°44' E 014°32'0 0.0
2018-Jul-15 07:30N 68°44' E 014°32'0 0.0
2018-Jul-15 07:00N 68°44' E 014°32'0 0.0
2018-Jul-15 06:29N 68°44' E 014°32'0 0.0
2018-Jul-15 06:00N 68°44' E 014°32'0 0.0
2018-Jul-15 05:30N 68°44' E 014°32'0 0.0
2018-Jul-15 04:59N 68°44' E 014°32'0 0.0
2018-Jul-15 04:30N 68°44' E 014°32'4 8.1
2018-Jul-15 03:59N 68°42' E 014°22'510.7
2018-Jul-15 03:30N 68°37' E 014°22'4 8.7
2018-Jul-15 03:00N 68°35' E 014°33'610.8
2018-Jul-15 02:29N 68°35' E 014°48'611.0
2018-Jul-15 01:58N 68°34' E 015°03'510.0
2018-Jul-15 01:28N 68°37' E 015°15'510.3
2018-Jul-15 01:00N 68°40' E 015°25'5 9.5
2018-Jul-15 00:30N 68°45' E 015°25'510.2
2018-Jul-14 23:59N 68°50' E 015°28'510.4
2018-Jul-14 23:30N 68°54' E 015°35'5 9.6
2018-Jul-14 23:00N 68°58' E 015°42'510.4
2018-Jul-14 22:29N 68°59' E 015°57'510.6
2018-Jul-14 22:00N 68°57' E 016°10'510.5
2018-Jul-14 21:30N 68°54' E 016°22'510.5
2018-Jul-14 20:59N 68°51' E 016°35'3 6.7
2018-Jul-14 20:30N 68°48' E 016°33'0 0.0
2018-Jul-14 20:00N 68°48' E 016°33'0 0.0
2018-Jul-14 19:30N 68°48' E 016°33'0 0.0
2018-Jul-14 18:59N 68°48' E 016°33'0 0.0
2018-Jul-14 18:30N 68°48' E 016°33'0 0.0
2018-Jul-14 18:00N 68°48' E 016°33'0 0.0
2018-Jul-14 17:30N 68°48' E 016°33'0 0.0
2018-Jul-14 17:00N 68°48' E 016°33'0 0.0
2018-Jul-14 16:30N 68°48' E 016°33'0 0.0
2018-Jul-14 16:00N 68°48' E 016°33'0 0.0
2018-Jul-14 15:29N 68°48' E 016°33'0 0.0
2018-Jul-14 15:00N 68°48' E 016°33'0 0.0
2018-Jul-14 14:30N 68°48' E 016°33'1 0.9
2018-Jul-14 13:30N 68°48' E 016°34'3 5.1
2018-Jul-14 13:00N 68°51' E 016°34'3 7.0
2018-Jul-14 12:30N 68°53' E 016°26'4 7.2
2018-Jul-14 11:59N 68°55' E 016°18'3 7.0
2018-Jul-14 11:30N 68°57' E 016°10'3 7.1
2018-Jul-14 11:00N 68°58' E 016°00'4 7.0
2018-Jul-14 10:30N 68°59' E 015°51'3 6.9
2018-Jul-14 10:00N 68°58' E 015°41'3 6.5
2018-Jul-14 09:30N 68°56' E 015°36'4 7.2
2018-Jul-14 09:00N 68°53' E 015°32'4 7.2
2018-Jul-14 08:30N 68°49' E 015°27'4 7.4
2018-Jul-14 08:00N 68°46' E 015°26'4 8.2
2018-Jul-14 07:29N 68°41' E 015°26'4 7.3
2018-Jul-14 07:00N 68°38' E 015°21'4 7.4
2018-Jul-14 06:30N 68°36' E 015°13'4 7.1
2018-Jul-14 06:00N 68°34' E 015°04'4 7.1
2018-Jul-14 05:30N 68°35' E 014°55'4 7.0
2018-Jul-14 05:00N 68°35' E 014°45'4 7.0
2018-Jul-14 04:30N 68°35' E 014°35'4 7.0
2018-Jul-14 04:00N 68°35' E 014°26'3 6.0
2018-Jul-14 03:30N 68°37' E 014°22'3 6.3
2018-Jul-14 03:00N 68°41' E 014°21'3 5.6
2018-Jul-14 02:30N 68°43' E 014°25'3 5.5
2018-Jul-14 02:00N 68°44' E 014°32'0 0.2
2018-Jul-14 01:30N 68°44' E 014°32'0 0.0
2018-Jul-14 01:00N 68°44' E 014°32'0 0.0
2018-Jul-14 00:30N 68°44' E 014°32'0 0.0
2018-Jul-14 00:00N 68°44' E 014°32'0 0.0
2018-Jul-13 23:30N 68°44' E 014°32'0 0.0
2018-Jul-13 23:00N 68°44' E 014°32'0 0.0
2018-Jul-13 22:30N 68°44' E 014°32'0 0.0
2018-Jul-13 22:00N 68°44' E 014°32'0 0.0
2018-Jul-13 21:30N 68°44' E 014°32'0 0.0
2018-Jul-13 21:00N 68°44' E 014°32'0 0.5
2018-Jul-13 20:29N 68°44' E 014°31'5 9.1
2018-Jul-13 19:59N 68°41' E 014°21'510.1
2018-Jul-13 19:30N 68°36' E 014°23'4 7.9
2018-Jul-13 19:00N 68°35' E 014°33'510.3
2018-Jul-13 18:29N 68°35' E 014°47'510.3
2018-Jul-13 18:00N 68°34' E 015°01'510.2
2018-Jul-13 17:30N 68°36' E 015°14'510.3
2018-Jul-13 17:00N 68°40' E 015°24'610.9
2018-Jul-13 16:30N 68°45' E 015°25'510.8
2018-Jul-13 16:00N 68°51' E 015°28'611.2
2018-Jul-13 15:30N 68°55' E 015°35'5 9.3
2018-Jul-13 15:00N 68°59' E 015°45'510.7
2018-Jul-13 14:30N 68°58' E 015°59'1110.7
2018-Jul-13 13:30N 68°53' E 016°25'510.2
2018-Jul-13 13:00N 68°50' E 016°37'3 6.2
2018-Jul-13 12:30N 68°47' E 016°33'0 0.0
2018-Jul-13 12:00N 68°47' E 016°33'0 0.0
2018-Jul-13 11:30N 68°47' E 016°33'0 0.0
2018-Jul-13 11:00N 68°47' E 016°33'0 0.0
2018-Jul-13 10:30N 68°47' E 016°33'0 0.0
2018-Jul-13 10:00N 68°47' E 016°33'0 0.0
2018-Jul-13 09:30N 68°47' E 016°33'0 0.0
2018-Jul-13 09:00N 68°47' E 016°33'0 0.0
2018-Jul-13 08:30N 68°47' E 016°33'0 0.0
2018-Jul-13 08:00N 68°47' E 016°33'0 0.0
2018-Jul-13 07:30N 68°47' E 016°33'0 0.0
2018-Jul-13 07:00N 68°47' E 016°33'0 0.0
2018-Jul-13 06:29N 68°47' E 016°33'0 0.0
2018-Jul-13 06:00N 68°47' E 016°33'0 0.0
2018-Jul-13 05:30N 68°47' E 016°33'0 0.0
2018-Jul-13 05:00N 68°47' E 016°33'0 0.0
2018-Jul-13 04:30N 68°47' E 016°33'0 0.0
2018-Jul-13 04:00N 68°47' E 016°33'0 0.0
2018-Jul-13 03:30N 68°47' E 016°33'0 0.0
2018-Jul-13 03:00N 68°47' E 016°33'0 0.0
2018-Jul-13 02:30N 68°47' E 016°33'0 0.0
2018-Jul-13 02:00N 68°47' E 016°33'0 0.0
2018-Jul-13 01:30N 68°47' E 016°33'0 0.0
2018-Jul-13 00:59N 68°47' E 016°33'0 0.0
2018-Jul-13 00:30N 68°47' E 016°33'1 2.0
2018-Jul-13 00:00N 68°48' E 016°34'4 8.1
2018-Jul-12 23:30N 68°52' E 016°30'611.0
2018-Jul-12 22:59N 68°56' E 016°17'510.7
2018-Jul-12 22:30N 68°58' E 016°04'510.4
2018-Jul-12 22:00N 68°59' E 015°50'4 9.1
2018-Jul-12 21:30N 68°58' E 015°38'510.4
2018-Jul-12 21:00N 68°53' E 015°32'510.4
2018-Jul-12 20:30N 68°48' E 015°26'510.3
2018-Jul-12 20:00N 68°43' E 015°25'5 9.9
2018-Jul-12 19:30N 68°38' E 015°21'4 8.4
2018-Jul-12 19:00N 68°36' E 015°12'510.2
2018-Jul-12 18:30N 68°39' E 015°23'610.9
2018-Jul-12 18:00N 68°45' E 015°25'510.3
2018-Jul-12 17:30N 68°50' E 015°28'611.0
2018-Jul-12 17:00N 68°55' E 015°35'5 9.5
2018-Jul-12 16:29N 68°59' E 015°42'5 9.5
2018-Jul-12 16:00N 68°59' E 015°55'510.6
2018-Jul-12 15:30N 68°57' E 016°09'510.2
2018-Jul-12 15:00N 68°54' E 016°21'510.2
2018-Jul-12 14:30N 68°51' E 016°32'3 6.9
2018-Jul-12 14:00N 68°48' E 016°34'0 0.0
2018-Jul-12 13:29N 68°48' E 016°34'0 0.0
2018-Jul-12 13:00N 68°48' E 016°34'0 0.3
2018-Jul-12 12:30N 68°48' E 016°34'1 1.6
2018-Jul-12 12:00N 68°47' E 016°33'0 0.0
2018-Jul-12 11:30N 68°47' E 016°33'0 0.0
2018-Jul-12 10:59N 68°47' E 016°33'0 0.0
2018-Jul-12 10:30N 68°47' E 016°33'0 0.0
2018-Jul-12 10:00N 68°47' E 016°33'0 0.0
2018-Jul-12 09:30N 68°47' E 016°33'0 0.0
2018-Jul-12 09:00N 68°47' E 016°33'1 2.7
2018-Jul-12 08:30N 68°48' E 016°35'510.8
2018-Jul-12 07:59N 68°51' E 016°48'510.8
2018-Jul-12 07:30N 68°54' E 017°00'3 7.1
2018-Jul-12 07:00N 68°55' E 017°09'0 0.0
2018-Jul-12 06:30N 68°55' E 017°09'0 0.0
2018-Jul-12 06:00N 68°55' E 017°09'0 0.0
2018-Jul-12 05:30N 68°55' E 017°09'0 0.0
2018-Jul-12 05:00N 68°55' E 017°09'0 0.0
2018-Jul-12 04:30N 68°55' E 017°09'0 0.0
2018-Jul-12 04:00N 68°55' E 017°09'0 0.0
2018-Jul-12 03:30N 68°55' E 017°09'0 0.0
2018-Jul-12 03:00N 68°55' E 017°09'0 0.0
2018-Jul-12 02:30N 68°55' E 017°09'0 0.0
2018-Jul-12 02:00N 68°55' E 017°09'0 0.0
2018-Jul-12 01:30N 68°55' E 017°09'0 0.0
2018-Jul-12 01:00N 68°55' E 017°09'0 0.0
2018-Jul-12 00:30N 68°55' E 017°09'0 0.0
2018-Jul-12 00:00N 68°55' E 017°09'0 0.0
2018-Jul-11 23:30N 68°55' E 017°09'1 1.3
2018-Jul-11 23:00N 68°56' E 017°08'4 7.6
2018-Jul-11 22:30N 68°55' E 016°58'4 7.7
2018-Jul-11 22:00N 68°54' E 016°47'4 7.5
2018-Jul-11 21:30N 68°53' E 016°37'4 7.9
2018-Jul-11 21:00N 68°53' E 016°27'4 8.2
2018-Jul-11 20:30N 68°55' E 016°18'4 7.7
2018-Jul-11 20:00N 68°57' E 016°08'4 7.5
2018-Jul-11 19:30N 68°58' E 015°58'4 7.3
2018-Jul-11 19:00N 68°59' E 015°48'3 5.1
2018-Jul-11 18:30N 68°58' E 015°41'2 4.0
2018-Jul-11 18:00N 68°57' E 015°36'3 5.4
2018-Jul-11 17:30N 68°54' E 015°35'3 5.2
2018-Jul-11 17:00N 68°52' E 015°31'3 5.4
2018-Jul-11 16:30N 68°50' E 015°28'3 5.1
2018-Jul-11 16:00N 68°47' E 015°26'3 5.5
2018-Jul-11 15:30N 68°45' E 015°25'3 5.1
2018-Jul-11 15:00N 68°42' E 015°26'2 4.9
2018-Jul-11 14:30N 68°40' E 015°25'3 5.3
2018-Jul-11 13:59N 68°38' E 015°20'3 5.7
2018-Jul-11 13:30N 68°36' E 015°14'3 5.6
2018-Jul-11 13:00N 68°35' E 015°07'3 5.9
2018-Jul-11 12:29N 68°34' E 014°59'4 7.4
2018-Jul-11 11:59N 68°35' E 014°49'4 7.5
2018-Jul-11 11:30N 68°35' E 014°39'4 7.3
2018-Jul-11 11:00N 68°35' E 014°29'3 5.9
2018-Jul-11 10:29N 68°37' E 014°22'3 7.0
2018-Jul-11 10:00N 68°40' E 014°22'3 6.0
2018-Jul-11 09:30N 68°43' E 014°24'  
Track history (hours):
 
Tides and Currents Weather Stations Pressure Air Temp Water Temp Dewpoint Dewpoint Depression Visibility Wind Speed Wind Dir Waves Ship Positions

Martin H

Last reported at 2018-Jul-21 09:00 UTC. Time now 2018-Jul-21 09:18 UTC.
Position N 69°43' E 019°01'.

Length 68 m; draft 5.8 m.

Type: Cargo ship. MMSI: 257996000.

Date/timePositionNaut miles runAvg speedWind from/ knotsBaromVisibWave heightAir tempDewpointWater temp
2018-Jul-21 09:00N 69°43' E 019°01'0 0.0
2018-Jul-21 08:30N 69°43' E 019°01'1 1.4
2018-Jul-21 08:00N 69°43' E 019°03'4 7.5
2018-Jul-21 07:30N 69°46' E 019°10'4 7.5
2018-Jul-21 07:00N 69°47' E 019°20'4 7.5
2018-Jul-21 06:31N 69°48' E 019°30'4 7.3
2018-Jul-21 06:00N 69°49' E 019°40'3 6.0
2018-Jul-21 05:30N 69°47' E 019°45'4 7.2
2018-Jul-21 05:00N 69°43' E 019°45'4 7.3
2018-Jul-21 04:30N 69°40' E 019°46'4 7.0
2018-Jul-21 04:00N 69°37' E 019°51'2 4.6
2018-Jul-21 03:30N 69°36' E 019°58'0 0.0
2018-Jul-21 03:00N 69°36' E 019°58'0 0.0
2018-Jul-21 02:30N 69°36' E 019°58'0 0.0
2018-Jul-21 02:00N 69°36' E 019°58'0 0.0
2018-Jul-21 01:30N 69°36' E 019°58'0 0.0
2018-Jul-21 01:00N 69°36' E 019°58'0 0.0
2018-Jul-21 00:29N 69°36' E 019°58'0 0.0
2018-Jul-21 00:00N 69°36' E 019°58'0 0.0
2018-Jul-20 23:30N 69°36' E 019°58'0 0.0
2018-Jul-20 23:00N 69°36' E 019°58'0 0.0
2018-Jul-20 22:30N 69°36' E 019°58'0 0.0
2018-Jul-20 22:01N 69°36' E 019°58'0 0.0
2018-Jul-20 21:31N 69°36' E 019°58'1 1.0
2018-Jul-20 21:00N 69°36' E 019°56'510.1
2018-Jul-20 20:30N 69°40' E 019°46'510.9
2018-Jul-20 20:00N 69°45' E 019°45'5 9.1
2018-Jul-20 19:30N 69°49' E 019°40'510.4
2018-Jul-20 19:00N 69°48' E 019°26'510.4
2018-Jul-20 18:30N 69°46' E 019°12'5 9.8
2018-Jul-20 18:00N 69°43' E 019°02'0 0.1
2018-Jul-20 17:30N 69°43' E 019°01'0 0.0
2018-Jul-20 17:00N 69°43' E 019°01'0 0.0
2018-Jul-20 16:30N 69°43' E 019°01'0 0.0
2018-Jul-20 16:00N 69°43' E 019°01'0 0.0
2018-Jul-20 15:30N 69°43' E 019°01'0 0.0
2018-Jul-20 15:00N 69°43' E 019°01'0 0.0
2018-Jul-20 14:28N 69°43' E 019°01'0 0.0
2018-Jul-20 13:59N 69°43' E 019°01'0 0.0
2018-Jul-20 13:30N 69°43' E 019°01'0 0.0
2018-Jul-20 13:00N 69°43' E 019°01'0 0.0
2018-Jul-20 12:30N 69°43' E 019°01'0 0.0
2018-Jul-20 12:00N 69°43' E 019°01'0 0.0
2018-Jul-20 11:30N 69°43' E 019°01'0 0.0
2018-Jul-20 11:00N 69°43' E 019°01'1 1.7
2018-Jul-20 10:30N 69°42' E 019°02'4 6.9
2018-Jul-20 09:59N 69°39' E 018°58'3 6.7
2018-Jul-20 09:31N 69°36' E 018°52'3 6.0
2018-Jul-20 09:00N 69°34' E 018°46'2 3.8
2018-Jul-20 08:29N 69°33' E 018°41'3 6.8
2018-Jul-20 08:00N 69°32' E 018°32'3 6.7
2018-Jul-20 07:28N 69°31' E 018°23'3 7.1
2018-Jul-20 07:01N 69°29' E 018°14'3 6.6
2018-Jul-20 06:31N 69°27' E 018°07'4 7.1
2018-Jul-20 06:00N 69°24' E 018°06'3 6.4
2018-Jul-20 05:30N 69°20' E 018°04'3 6.4
2018-Jul-20 04:59N 69°18' E 017°59'3 6.7
2018-Jul-20 04:30N 69°14' E 017°58'3 6.2
2018-Jul-20 04:00N 69°12' E 018°01'3 6.8
2018-Jul-20 03:31N 69°10' E 017°54'4 7.0
2018-Jul-20 03:00N 69°08' E 017°44'3 6.9
2018-Jul-20 02:31N 69°07' E 017°36'3 6.8
2018-Jul-20 02:01N 69°05' E 017°27'3 6.5
2018-Jul-20 01:30N 69°03' E 017°20'4 6.8
2018-Jul-20 00:58N 69°00' E 017°15'4 7.0
2018-Jul-20 00:28N 68°60' E 017°05'3 6.9
2018-Jul-20 00:00N 68°60' E 016°56'4 7.0
2018-Jul-19 23:30N 69°00' E 016°46'4 7.1
2018-Jul-19 22:59N 69°01' E 016°36'3 7.1
2018-Jul-19 22:30N 69°01' E 016°27'4 7.1
2018-Jul-19 21:59N 69°01' E 016°17'3 6.9
2018-Jul-19 21:30N 69°00' E 016°07'3 6.7
2018-Jul-19 21:00N 68°60' E 015°58'3 6.9
2018-Jul-19 20:30N 68°59' E 015°49'3 6.0
2018-Jul-19 19:59N 68°58' E 015°41'3 6.1
2018-Jul-19 19:31N 68°56' E 015°35'3 6.7
2018-Jul-19 19:00N 68°53' E 015°32'4 7.2
2018-Jul-19 18:30N 68°49' E 015°27'4 7.3
2018-Jul-19 18:00N 68°46' E 015°25'3 7.0
2018-Jul-19 17:30N 68°42' E 015°26'3 6.6
2018-Jul-19 17:00N 68°39' E 015°23'4 7.5
2018-Jul-19 16:29N 68°37' E 015°15'4 7.3
2018-Jul-19 16:00N 68°35' E 015°07'4 7.0
2018-Jul-19 15:30N 68°35' E 014°57'4 7.5
2018-Jul-19 15:00N 68°35' E 014°47'4 7.4
2018-Jul-19 14:29N 68°36' E 014°37'6 5.8
2018-Jul-19 13:31N 68°37' E 014°22'3 7.0
2018-Jul-19 13:01N 68°41' E 014°21'3 6.4
2018-Jul-19 12:30N 68°43' E 014°26'2 4.5
2018-Jul-19 12:00N 68°44' E 014°31'0 0.4
2018-Jul-19 11:30N 68°44' E 014°32'0 0.0
2018-Jul-19 11:01N 68°44' E 014°32'0 0.0
2018-Jul-19 10:30N 68°44' E 014°32'0 0.0
2018-Jul-19 10:00N 68°44' E 014°32'0 0.0
2018-Jul-19 09:30N 68°44' E 014°32'0 0.0
2018-Jul-19 09:00N 68°44' E 014°32'0 0.0
2018-Jul-19 08:29N 68°44' E 014°32'0 0.0
2018-Jul-19 08:00N 68°44' E 014°32'0 0.3
2018-Jul-19 07:30N 68°44' E 014°32'0 0.1
2018-Jul-19 07:00N 68°44' E 014°32'0 0.0
2018-Jul-19 06:30N 68°44' E 014°32'0 0.2
2018-Jul-19 06:00N 68°44' E 014°32'0 0.1
2018-Jul-19 05:30N 68°44' E 014°32'0 0.0
2018-Jul-19 05:00N 68°44' E 014°32'0 0.1
2018-Jul-19 04:30N 68°44' E 014°32'0 0.0
2018-Jul-19 04:00N 68°44' E 014°32'0 1.0
2018-Jul-19 03:29N 68°44' E 014°30'4 8.6
2018-Jul-19 03:01N 68°42' E 014°21'510.6
2018-Jul-19 02:30N 68°36' E 014°22'4 8.8
2018-Jul-19 02:01N 68°35' E 014°34'510.0
2018-Jul-19 01:30N 68°35' E 014°47'610.8
2018-Jul-19 01:00N 68°34' E 015°02'510.4
2018-Jul-19 00:29N 68°37' E 015°15'510.2
2018-Jul-19 00:00N 68°40' E 015°25'510.1
2018-Jul-18 23:30N 68°45' E 015°26'5 9.9
2018-Jul-18 23:00N 68°50' E 015°28'5 9.9
2018-Jul-18 22:29N 68°54' E 015°35'5 9.2
2018-Jul-18 22:00N 68°58' E 015°41'510.2
2018-Jul-18 21:30N 68°59' E 015°55'611.0
2018-Jul-18 21:00N 68°57' E 016°10'510.9
2018-Jul-18 20:30N 68°54' E 016°22'510.7
2018-Jul-18 20:00N 68°51' E 016°35'3 6.6
2018-Jul-18 19:30N 68°48' E 016°33'4 8.0
2018-Jul-18 19:00N 68°50' E 016°41'4 8.4
2018-Jul-18 18:29N 68°47' E 016°33'0 0.0
2018-Jul-18 18:00N 68°47' E 016°33'0 0.0
2018-Jul-18 17:30N 68°47' E 016°33'0 0.0
2018-Jul-18 17:00N 68°47' E 016°33'0 0.0
2018-Jul-18 16:30N 68°47' E 016°33'0 0.0
2018-Jul-18 16:00N 68°47' E 016°33'0 0.0
2018-Jul-18 15:30N 68°47' E 016°33'0 0.0
2018-Jul-18 15:00N 68°47' E 016°33'0 0.0
2018-Jul-18 14:30N 68°47' E 016°33'0 0.0
2018-Jul-18 14:00N 68°47' E 016°33'0 0.0
2018-Jul-18 13:31N 68°47' E 016°33'0 0.0
2018-Jul-18 13:00N 68°47' E 016°33'0 0.0
2018-Jul-18 12:30N 68°47' E 016°33'0 0.0
2018-Jul-18 12:00N 68°47' E 016°33'0 0.0
2018-Jul-18 11:30N 68°47' E 016°33'0 0.0
2018-Jul-18 10:30N 68°47' E 016°33'0 0.0
2018-Jul-18 10:00N 68°47' E 016°33'0 0.0
2018-Jul-18 09:30N 68°47' E 016°33'0 0.0
2018-Jul-18 09:00N 68°47' E 016°33'0 0.0
2018-Jul-18 08:30N 68°47' E 016°33'0 0.0
2018-Jul-18 08:00N 68°47' E 016°33'0 0.0
2018-Jul-18 07:30N 68°47' E 016°33'0 0.0
2018-Jul-18 07:00N 68°47' E 016°33'0 0.0
2018-Jul-18 06:31N 68°47' E 016°33'0 0.0
2018-Jul-18 06:00N 68°47' E 016°33'0 0.0
2018-Jul-18 05:30N 68°47' E 016°33'0 0.0
2018-Jul-18 05:00N 68°47' E 016°33'0 0.0
2018-Jul-18 04:30N 68°47' E 016°33'0 0.0
2018-Jul-18 04:00N 68°47' E 016°33'0 0.0
2018-Jul-18 03:30N 68°47' E 016°33'0 0.0
2018-Jul-18 03:00N 68°47' E 016°33'0 0.0
2018-Jul-18 02:30N 68°47' E 016°33'0 0.0
2018-Jul-18 02:00N 68°47' E 016°33'0 0.0
2018-Jul-18 01:30N 68°47' E 016°33'0 0.0
2018-Jul-18 01:01N 68°47' E 016°33'0 0.0
2018-Jul-18 00:31N 68°47' E 016°33'0 0.0
2018-Jul-18 00:00N 68°47' E 016°33'0 0.0
2018-Jul-17 23:30N 68°47' E 016°33'0 0.0
2018-Jul-17 23:00N 68°47' E 016°33'0 0.0
2018-Jul-17 22:30N 68°47' E 016°33'0 0.0
2018-Jul-17 22:00N 68°47' E 016°33'0 0.0
2018-Jul-17 21:30N 68°47' E 016°33'0 0.0
2018-Jul-17 21:00N 68°47' E 016°33'0 0.0
2018-Jul-17 20:31N 68°47' E 016°33'0 0.0
2018-Jul-17 20:00N 68°47' E 016°33'0 0.0
2018-Jul-17 19:30N 68°47' E 016°33'0 0.0
2018-Jul-17 19:00N 68°47' E 016°33'0 0.0
2018-Jul-17 18:31N 68°47' E 016°33'0 0.0
2018-Jul-17 18:00N 68°47' E 016°33'0 0.0
2018-Jul-17 17:30N 68°47' E 016°33'0 0.0
2018-Jul-17 17:00N 68°47' E 016°33'0 0.0
2018-Jul-17 16:30N 68°47' E 016°33'0 0.0
2018-Jul-17 16:00N 68°47' E 016°33'0 0.0
2018-Jul-17 15:30N 68°47' E 016°33'0 0.0
2018-Jul-17 15:00N 68°47' E 016°33'0 0.0
2018-Jul-17 14:30N 68°47' E 016°33'0 0.0
2018-Jul-17 14:00N 68°47' E 016°33'0 0.0
2018-Jul-17 13:30N 68°47' E 016°33'0 0.0
2018-Jul-17 13:00N 68°47' E 016°33'0 0.0
2018-Jul-17 12:30N 68°47' E 016°33'0 0.0
2018-Jul-17 12:00N 68°47' E 016°33'0 0.0
2018-Jul-17 11:30N 68°47' E 016°33'0 0.0
2018-Jul-17 11:01N 68°47' E 016°33'0 0.0
2018-Jul-17 10:30N 68°47' E 016°33'0 0.0
2018-Jul-17 10:01N 68°47' E 016°33'0 0.0
2018-Jul-17 09:30N 68°47' E 016°33'0 0.0
2018-Jul-17 09:00N 68°47' E 016°33'0 0.0
2018-Jul-17 08:31N 68°47' E 016°33'0 0.0
2018-Jul-17 08:00N 68°47' E 016°33'0 0.0
2018-Jul-17 07:30N 68°47' E 016°33'0 0.0
2018-Jul-17 07:00N 68°47' E 016°33'0 0.0
2018-Jul-17 06:31N 68°47' E 016°33'0 0.0
2018-Jul-17 06:00N 68°47' E 016°33'0 0.0
2018-Jul-17 05:30N 68°47' E 016°33'0 0.0
2018-Jul-17 05:00N 68°47' E 016°33'0 0.0
2018-Jul-17 04:30N 68°47' E 016°33'0 0.0
2018-Jul-17 04:00N 68°47' E 016°33'0 0.0
2018-Jul-17 03:30N 68°47' E 016°33'0 0.0
2018-Jul-17 03:00N 68°47' E 016°33'0 0.0
2018-Jul-17 02:30N 68°47' E 016°33'0 0.0
2018-Jul-17 02:00N 68°47' E 016°33'0 0.0
2018-Jul-17 01:30N 68°47' E 016°33'0 0.0
2018-Jul-17 01:00N 68°47' E 016°33'0 0.0
2018-Jul-17 00:29N 68°47' E 016°33'0 0.0
2018-Jul-16 23:30N 68°47' E 016°33'0 0.0
2018-Jul-16 23:00N 68°47' E 016°33'0 0.0
2018-Jul-16 22:31N 68°47' E 016°33'0 0.0
2018-Jul-16 22:00N 68°47' E 016°33'0 0.0
2018-Jul-16 21:30N 68°47' E 016°33'0 0.0
2018-Jul-16 21:00N 68°47' E 016°33'0 0.0
2018-Jul-16 20:30N 68°47' E 016°33'0 0.0
2018-Jul-16 20:01N 68°47' E 016°33'0 0.0
2018-Jul-16 19:31N 68°47' E 016°33'0 0.0
2018-Jul-16 19:01N 68°47' E 016°33'0 0.0
2018-Jul-16 18:30N 68°47' E 016°33'0 0.0
2018-Jul-16 18:00N 68°47' E 016°33'0 0.0
2018-Jul-16 17:30N 68°47' E 016°33'0 0.0
2018-Jul-16 17:00N 68°47' E 016°33'0 0.0
2018-Jul-16 16:30N 68°47' E 016°33'0 0.0
2018-Jul-16 16:00N 68°47' E 016°33'3 6.4
2018-Jul-16 15:29N 68°50' E 016°37'510.2
2018-Jul-16 15:00N 68°55' E 016°42'510.0
2018-Jul-16 14:31N 68°59' E 016°47'510.0
2018-Jul-16 14:00N 69°04' E 016°44'510.1
2018-Jul-16 13:30N 69°09' E 016°45'510.3
2018-Jul-16 13:00N 69°14' E 016°50'510.5
2018-Jul-16 12:31N 69°19' E 016°50'510.1
2018-Jul-16 12:00N 69°25' E 016°49'5 9.8
2018-Jul-16 11:30N 69°29' E 016°53'5 9.3
2018-Jul-16 11:00N 69°32' E 017°04'5 9.5
2018-Jul-16 10:31N 69°33' E 017°18'5 9.1
2018-Jul-16 10:00N 69°31' E 017°30'2 3.0
2018-Jul-16 09:30N 69°29' E 017°29'0 0.0
2018-Jul-16 09:00N 69°29' E 017°29'0 0.0
2018-Jul-16 08:30N 69°29' E 017°29'0 0.0
2018-Jul-16 08:00N 69°29' E 017°29'0 0.0
2018-Jul-16 07:30N 69°29' E 017°29'0 0.0
2018-Jul-16 06:59N 69°29' E 017°29'0 0.0
2018-Jul-16 06:30N 69°29' E 017°29'0 0.0
2018-Jul-16 05:59N 69°29' E 017°29'0 0.0
2018-Jul-16 05:30N 69°29' E 017°29'0 0.0
2018-Jul-16 05:00N 69°29' E 017°29'0 0.0
2018-Jul-16 04:30N 69°29' E 017°29'0 0.0
2018-Jul-16 04:01N 69°29' E 017°29'0 0.0
2018-Jul-16 03:31N 69°29' E 017°29'0 0.0
2018-Jul-16 03:00N 69°29' E 017°29'0 0.0
2018-Jul-16 02:30N 69°29' E 017°29'0 0.0
2018-Jul-16 02:01N 69°29' E 017°29'1 2.9
2018-Jul-16 01:31N 69°31' E 017°30'4 7.1
2018-Jul-16 01:00N 69°33' E 017°21'3 6.8
2018-Jul-16 00:31N 69°32' E 017°12'4 7.2
2018-Jul-15 23:59N 69°31' E 017°01'3 6.9
2018-Jul-15 23:30N 69°30' E 016°53'3 5.0
2018-Jul-15 23:00N 69°27' E 016°50'3 6.9
2018-Jul-15 22:31N 69°24' E 016°45'4 7.0
2018-Jul-15 22:01N 69°21' E 016°40'4 7.0
2018-Jul-15 21:30N 69°18' E 016°34'3 6.7
2018-Jul-15 21:00N 69°16' E 016°29'4 7.1
2018-Jul-15 20:30N 69°13' E 016°23'4 7.3
2018-Jul-15 20:00N 69°10' E 016°18'4 7.4
2018-Jul-15 19:30N 69°07' E 016°11'4 7.4
2018-Jul-15 19:00N 69°04' E 016°05'4 7.4
2018-Jul-15 18:30N 69°01' E 015°58'4 7.4
2018-Jul-15 17:59N 68°59' E 015°49'4 7.3
2018-Jul-15 17:30N 68°58' E 015°39'4 7.0
2018-Jul-15 17:00N 68°55' E 015°35'4 7.2
2018-Jul-15 16:30N 68°52' E 015°30'4 8.0
2018-Jul-15 15:59N 68°48' E 015°26'4 8.4
2018-Jul-15 15:29N 68°44' E 015°25'4 7.7
2018-Jul-15 15:00N 68°40' E 015°25'4 7.8
2018-Jul-15 14:30N 68°37' E 015°17'4 7.8
2018-Jul-15 14:00N 68°35' E 015°09'3 6.9
2018-Jul-15 13:30N 68°34' E 014°59'4 7.0
2018-Jul-15 13:00N 68°35' E 014°50'4 7.4
2018-Jul-15 12:30N 68°36' E 014°40'4 7.5
2018-Jul-15 12:00N 68°35' E 014°30'3 5.5
2018-Jul-15 11:30N 68°36' E 014°22'3 6.2
2018-Jul-15 11:00N 68°39' E 014°23'3 5.4
2018-Jul-15 10:29N 68°42' E 014°21'3 5.5
2018-Jul-15 10:00N 68°44' E 014°26'2 4.2
2018-Jul-15 09:30N 68°44' E 014°32'0 0.0
2018-Jul-15 08:58N 68°44' E 014°32'0 0.0
2018-Jul-15 08:30N 68°44' E 014°32'0 0.0
2018-Jul-15 08:00N 68°44' E 014°32'0 0.0
2018-Jul-15 07:30N 68°44' E 014°32'0 0.0
2018-Jul-15 07:00N 68°44' E 014°32'0 0.0
2018-Jul-15 06:29N 68°44' E 014°32'0 0.0
2018-Jul-15 06:00N 68°44' E 014°32'0 0.0
2018-Jul-15 05:30N 68°44' E 014°32'0 0.0
2018-Jul-15 04:59N 68°44' E 014°32'0 0.0
2018-Jul-15 04:30N 68°44' E 014°32'4 8.1
2018-Jul-15 03:59N 68°42' E 014°22'510.7
2018-Jul-15 03:30N 68°37' E 014°22'4 8.7
2018-Jul-15 03:00N 68°35' E 014°33'610.8
2018-Jul-15 02:29N 68°35' E 014°48'611.0
2018-Jul-15 01:58N 68°34' E 015°03'510.0
2018-Jul-15 01:28N 68°37' E 015°15'510.3
2018-Jul-15 01:00N 68°40' E 015°25'5 9.5
2018-Jul-15 00:30N 68°45' E 015°25'510.2
2018-Jul-14 23:59N 68°50' E 015°28'510.4
2018-Jul-14 23:30N 68°54' E 015°35'5 9.6
2018-Jul-14 23:00N 68°58' E 015°42'510.4
2018-Jul-14 22:29N 68°59' E 015°57'510.6
2018-Jul-14 22:00N 68°57' E 016°10'510.5
2018-Jul-14 21:30N 68°54' E 016°22'510.5
2018-Jul-14 20:59N 68°51' E 016°35'3 6.7
2018-Jul-14 20:30N 68°48' E 016°33'0 0.0
2018-Jul-14 20:00N 68°48' E 016°33'0 0.0
2018-Jul-14 19:30N 68°48' E 016°33'0 0.0
2018-Jul-14 18:59N 68°48' E 016°33'0 0.0
2018-Jul-14 18:30N 68°48' E 016°33'0 0.0
2018-Jul-14 18:00N 68°48' E 016°33'0 0.0
2018-Jul-14 17:30N 68°48' E 016°33'0 0.0
2018-Jul-14 17:00N 68°48' E 016°33'0 0.0
2018-Jul-14 16:30N 68°48' E 016°33'0 0.0
2018-Jul-14 16:00N 68°48' E 016°33'0 0.0
2018-Jul-14 15:29N 68°48' E 016°33'0 0.0
2018-Jul-14 15:00N 68°48' E 016°33'0 0.0
2018-Jul-14 14:30N 68°48' E 016°33'1 0.9
2018-Jul-14 13:30N 68°48' E 016°34'3 5.1
2018-Jul-14 13:00N 68°51' E 016°34'3 7.0
2018-Jul-14 12:30N 68°53' E 016°26'4 7.2
2018-Jul-14 11:59N 68°55' E 016°18'3 7.0
2018-Jul-14 11:30N 68°57' E 016°10'3 7.1
2018-Jul-14 11:00N 68°58' E 016°00'4 7.0
2018-Jul-14 10:30N 68°59' E 015°51'3 6.9
2018-Jul-14 10:00N 68°58' E 015°41'3 6.5
2018-Jul-14 09:30N 68°56' E 015°36'4 7.2
2018-Jul-14 09:00N 68°53' E 015°32'4 7.2
2018-Jul-14 08:30N 68°49' E 015°27'4 7.4
2018-Jul-14 08:00N 68°46' E 015°26'4 8.2
2018-Jul-14 07:29N 68°41' E 015°26'4 7.3
2018-Jul-14 07:00N 68°38' E 015°21'4 7.4
2018-Jul-14 06:30N 68°36' E 015°13'4 7.1
2018-Jul-14 06:00N 68°34' E 015°04'4 7.1
2018-Jul-14 05:30N 68°35' E 014°55'4 7.0
2018-Jul-14 05:00N 68°35' E 014°45'4 7.0
2018-Jul-14 04:30N 68°35' E 014°35'4 7.0
2018-Jul-14 04:00N 68°35' E 014°26'3 6.0
2018-Jul-14 03:30N 68°37' E 014°22'3 6.3
2018-Jul-14 03:00N 68°41' E 014°21'3 5.6
2018-Jul-14 02:30N 68°43' E 014°25'3 5.5
2018-Jul-14 02:00N 68°44' E 014°32'0 0.2
2018-Jul-14 01:30N 68°44' E 014°32'0 0.0
2018-Jul-14 01:00N 68°44' E 014°32'0 0.0
2018-Jul-14 00:30N 68°44' E 014°32'0 0.0
2018-Jul-14 00:00N 68°44' E 014°32'0 0.0
2018-Jul-13 23:30N 68°44' E 014°32'0 0.0
2018-Jul-13 23:00N 68°44' E 014°32'0 0.0
2018-Jul-13 22:30N 68°44' E 014°32'0 0.0
2018-Jul-13 22:00N 68°44' E 014°32'0 0.0
2018-Jul-13 21:30N 68°44' E 014°32'0 0.0
2018-Jul-13 21:00N 68°44' E 014°32'0 0.5
2018-Jul-13 20:29N 68°44' E 014°31'5 9.1
2018-Jul-13 19:59N 68°41' E 014°21'510.1
2018-Jul-13 19:30N 68°36' E 014°23'4 7.9
2018-Jul-13 19:00N 68°35' E 014°33'510.3
2018-Jul-13 18:29N 68°35' E 014°47'510.3
2018-Jul-13 18:00N 68°34' E 015°01'510.2
2018-Jul-13 17:30N 68°36' E 015°14'510.3
2018-Jul-13 17:00N 68°40' E 015°24'610.9
2018-Jul-13 16:30N 68°45' E 015°25'510.8
2018-Jul-13 16:00N 68°51' E 015°28'611.2
2018-Jul-13 15:30N 68°55' E 015°35'5 9.3
2018-Jul-13 15:00N 68°59' E 015°45'510.7
2018-Jul-13 14:30N 68°58' E 015°59'1110.7
2018-Jul-13 13:30N 68°53' E 016°25'510.2
2018-Jul-13 13:00N 68°50' E 016°37'3 6.2
2018-Jul-13 12:30N 68°47' E 016°33'0 0.0
2018-Jul-13 12:00N 68°47' E 016°33'0 0.0
2018-Jul-13 11:30N 68°47' E 016°33'0 0.0
2018-Jul-13 11:00N 68°47' E 016°33'0 0.0
2018-Jul-13 10:30N 68°47' E 016°33'0 0.0
2018-Jul-13 10:00N 68°47' E 016°33'0 0.0
2018-Jul-13 09:30N 68°47' E 016°33'0 0.0
2018-Jul-13 09:00N 68°47' E 016°33'0 0.0
2018-Jul-13 08:30N 68°47' E 016°33'0 0.0
2018-Jul-13 08:00N 68°47' E 016°33'0 0.0
2018-Jul-13 07:30N 68°47' E 016°33'0 0.0
2018-Jul-13 07:00N 68°47' E 016°33'0 0.0
2018-Jul-13 06:29N 68°47' E 016°33'0 0.0
2018-Jul-13 06:00N 68°47' E 016°33'0 0.0
2018-Jul-13 05:30N 68°47' E 016°33'0 0.0
2018-Jul-13 05:00N 68°47' E 016°33'0 0.0
2018-Jul-13 04:30N 68°47' E 016°33'0 0.0
2018-Jul-13 04:00N 68°47' E 016°33'0 0.0
2018-Jul-13 03:30N 68°47' E 016°33'0 0.0
2018-Jul-13 03:00N 68°47' E 016°33'0 0.0
2018-Jul-13 02:30N 68°47' E 016°33'0 0.0
2018-Jul-13 02:00N 68°47' E 016°33'0 0.0
2018-Jul-13 01:30N 68°47' E 016°33'0 0.0
2018-Jul-13 00:59N 68°47' E 016°33'0 0.0
2018-Jul-13 00:30N 68°47' E 016°33'1 2.0
2018-Jul-13 00:00N 68°48' E 016°34'4 8.1
2018-Jul-12 23:30N 68°52' E 016°30'611.0
2018-Jul-12 22:59N 68°56' E 016°17'510.7
2018-Jul-12 22:30N 68°58' E 016°04'510.4
2018-Jul-12 22:00N 68°59' E 015°50'4 9.1
2018-Jul-12 21:30N 68°58' E 015°38'510.4
2018-Jul-12 21:00N 68°53' E 015°32'510.4
2018-Jul-12 20:30N 68°48' E 015°26'510.3
2018-Jul-12 20:00N 68°43' E 015°25'5 9.9
2018-Jul-12 19:30N 68°38' E 015°21'4 8.4
2018-Jul-12 19:00N 68°36' E 015°12'510.2
2018-Jul-12 18:30N 68°39' E 015°23'610.9
2018-Jul-12 18:00N 68°45' E 015°25'510.3
2018-Jul-12 17:30N 68°50' E 015°28'611.0
2018-Jul-12 17:00N 68°55' E 015°35'5 9.5
2018-Jul-12 16:29N 68°59' E 015°42'5 9.5
2018-Jul-12 16:00N 68°59' E 015°55'510.6
2018-Jul-12 15:30N 68°57' E 016°09'510.2
2018-Jul-12 15:00N 68°54' E 016°21'510.2
2018-Jul-12 14:30N 68°51' E 016°32'3 6.9
2018-Jul-12 14:00N 68°48' E 016°34'0 0.0
2018-Jul-12 13:29N 68°48' E 016°34'0 0.0
2018-Jul-12 13:00N 68°48' E 016°34'0 0.3
2018-Jul-12 12:30N 68°48' E 016°34'1 1.6
2018-Jul-12 12:00N 68°47' E 016°33'0 0.0
2018-Jul-12 11:30N 68°47' E 016°33'0 0.0
2018-Jul-12 10:59N 68°47' E 016°33'0 0.0
2018-Jul-12 10:30N 68°47' E 016°33'0 0.0
2018-Jul-12 10:00N 68°47' E 016°33'0 0.0
2018-Jul-12 09:30N 68°47' E 016°33'0 0.0
2018-Jul-12 09:00N 68°47' E 016°33'1 2.7
2018-Jul-12 08:30N 68°48' E 016°35'510.8
2018-Jul-12 07:59N 68°51' E 016°48'510.8
2018-Jul-12 07:30N 68°54' E 017°00'3 7.1
2018-Jul-12 07:00N 68°55' E 017°09'0 0.0
2018-Jul-12 06:30N 68°55' E 017°09'0 0.0
2018-Jul-12 06:00N 68°55' E 017°09'0 0.0
2018-Jul-12 05:30N 68°55' E 017°09'0 0.0
2018-Jul-12 05:00N 68°55' E 017°09'0 0.0
2018-Jul-12 04:30N 68°55' E 017°09'0 0.0
2018-Jul-12 04:00N 68°55' E 017°09'0 0.0
2018-Jul-12 03:30N 68°55' E 017°09'0 0.0
2018-Jul-12 03:00N 68°55' E 017°09'0 0.0
2018-Jul-12 02:30N 68°55' E 017°09'0 0.0
2018-Jul-12 02:00N 68°55' E 017°09'0 0.0
2018-Jul-12 01:30N 68°55' E 017°09'0 0.0
2018-Jul-12 01:00N 68°55' E 017°09'0 0.0
2018-Jul-12 00:30N 68°55' E 017°09'0 0.0
2018-Jul-12 00:00N 68°55' E 017°09'0 0.0
2018-Jul-11 23:30N 68°55' E 017°09'1 1.3
2018-Jul-11 23:00N 68°56' E 017°08'4 7.6
2018-Jul-11 22:30N 68°55' E 016°58'4 7.7
2018-Jul-11 22:00N 68°54' E 016°47'4 7.5
2018-Jul-11 21:30N 68°53' E 016°37'4 7.9
2018-Jul-11 21:00N 68°53' E 016°27'4 8.2
2018-Jul-11 20:30N 68°55' E 016°18'4 7.7
2018-Jul-11 20:00N 68°57' E 016°08'4 7.5
2018-Jul-11 19:30N 68°58' E 015°58'4 7.3
2018-Jul-11 19:00N 68°59' E 015°48'3 5.1
2018-Jul-11 18:30N 68°58' E 015°41'2 4.0
2018-Jul-11 18:00N 68°57' E 015°36'3 5.4
2018-Jul-11 17:30N 68°54' E 015°35'3 5.2
2018-Jul-11 17:00N 68°52' E 015°31'3 5.4
2018-Jul-11 16:30N 68°50' E 015°28'3 5.1
2018-Jul-11 16:00N 68°47' E 015°26'3 5.5
2018-Jul-11 15:30N 68°45' E 015°25'3 5.1
2018-Jul-11 15:00N 68°42' E 015°26'2 4.9
2018-Jul-11 14:30N 68°40' E 015°25'3 5.3
2018-Jul-11 13:59N 68°38' E 015°20'3 5.7
2018-Jul-11 13:30N 68°36' E 015°14'3 5.6
2018-Jul-11 13:00N 68°35' E 015°07'3 5.9
2018-Jul-11 12:29N 68°34' E 014°59'4 7.4
2018-Jul-11 11:59N 68°35' E 014°49'4 7.5
2018-Jul-11 11:30N 68°35' E 014°39'4 7.3
2018-Jul-11 11:00N 68°35' E 014°29'3 5.9
2018-Jul-11 10:29N 68°37' E 014°22'3 7.0
2018-Jul-11 10:00N 68°40' E 014°22'3 6.0
2018-Jul-11 09:30N 68°43' E 014°24'  

Dump ship's entire track history